sensor_id;sensor_type;location;lat;lon;timestamp;pressure;altitude;pressure_sealevel;temperature;humidity
35655;BME280;21773;50.010;19.972;2023-05-22T00:01:19;98977.28;;;17.99;57.15
35655;BME280;21773;50.010;19.972;2023-05-22T00:04:23;98978.66;;;17.96;57.42
35655;BME280;21773;50.010;19.972;2023-05-22T00:07:31;98970.19;;;17.93;57.50
35655;BME280;21773;50.010;19.972;2023-05-22T00:10:35;98963.34;;;17.85;58.19
35655;BME280;21773;50.010;19.972;2023-05-22T00:13:39;98965.25;;;17.85;57.55
35655;BME280;21773;50.010;19.972;2023-05-22T00:16:42;98961.66;;;17.79;57.83
35655;BME280;21773;50.010;19.972;2023-05-22T00:19:47;98965.22;;;17.80;57.48
35655;BME280;21773;50.010;19.972;2023-05-22T00:22:50;98952.38;;;17.75;57.55
35655;BME280;21773;50.010;19.972;2023-05-22T00:25:56;98954.56;;;17.73;57.56
35655;BME280;21773;50.010;19.972;2023-05-22T00:28:59;98959.19;;;17.72;57.58
35655;BME280;21773;50.010;19.972;2023-05-22T00:32:03;98960.81;;;17.68;57.49
35655;BME280;21773;50.010;19.972;2023-05-22T00:35:08;98960.25;;;17.66;57.47
35655;BME280;21773;50.010;19.972;2023-05-22T00:38:27;98954.78;;;17.61;57.25
35655;BME280;21773;50.010;19.972;2023-05-22T00:41:32;98953.66;;;17.57;56.70
35655;BME280;21773;50.010;19.972;2023-05-22T00:44:36;98960.75;;;17.58;56.55
35655;BME280;21773;50.010;19.972;2023-05-22T00:47:40;98956.44;;;17.62;56.14
35655;BME280;21773;50.010;19.972;2023-05-22T00:50:44;98952.31;;;17.60;56.21
35655;BME280;21773;50.010;19.972;2023-05-22T00:53:49;98958.53;;;17.55;55.93
35655;BME280;21773;50.010;19.972;2023-05-22T00:56:54;98963.13;;;17.50;55.97
35655;BME280;21773;50.010;19.972;2023-05-22T00:59:57;98956.03;;;17.44;56.04
35655;BME280;21773;50.010;19.972;2023-05-22T01:03:02;98955.47;;;17.42;55.91
35655;BME280;21773;50.010;19.972;2023-05-22T01:06:09;98952.97;;;17.35;56.38
35655;BME280;21773;50.010;19.972;2023-05-22T01:09:12;98959.50;;;17.29;56.18
35655;BME280;21773;50.010;19.972;2023-05-22T01:12:22;98958.94;;;17.27;56.14
35655;BME280;21773;50.010;19.972;2023-05-22T01:15:32;98929.41;;;17.09;55.84
35655;BME280;21773;50.010;19.972;2023-05-22T01:18:44;98945.81;;;17.19;56.11
35655;BME280;21773;50.010;19.972;2023-05-22T01:22:00;98940.34;;;17.19;56.21
35655;BME280;21773;50.010;19.972;2023-05-22T01:25:35;98928.00;;;17.06;56.15
35655;BME280;21773;50.010;19.972;2023-05-22T01:29:28;98950.41;;;17.13;56.05
35655;BME280;21773;50.010;19.972;2023-05-22T01:32:35;98948.13;;;17.00;56.60
35655;BME280;21773;50.010;19.972;2023-05-22T01:35:40;98946.97;;;16.91;56.96
35655;BME280;21773;50.010;19.972;2023-05-22T01:38:45;98944.78;;;16.88;56.88
35655;BME280;21773;50.010;19.972;2023-05-22T01:41:50;98943.13;;;16.87;56.88
35655;BME280;21773;50.010;19.972;2023-05-22T01:44:53;98940.34;;;16.82;57.07
35655;BME280;21773;50.010;19.972;2023-05-22T01:47:57;98936.22;;;16.74;57.07
35655;BME280;21773;50.010;19.972;2023-05-22T01:51:06;98942.16;;;16.66;57.44
35655;BME280;21773;50.010;19.972;2023-05-22T01:54:14;98935.78;;;16.56;57.93
35655;BME280;21773;50.010;19.972;2023-05-22T01:57:25;98939.13;;;16.63;57.59
35655;BME280;21773;50.010;19.972;2023-05-22T02:00:30;98945.91;;;16.60;57.57
35655;BME280;21773;50.010;19.972;2023-05-22T02:03:37;98940.72;;;16.59;57.37
35655;BME280;21773;50.010;19.972;2023-05-22T02:06:43;98949.63;;;16.54;57.74
35655;BME280;21773;50.010;19.972;2023-05-22T02:09:47;98947.94;;;16.48;58.09
35655;BME280;21773;50.010;19.972;2023-05-22T02:12:53;98950.94;;;16.46;58.07
35655;BME280;21773;50.010;19.972;2023-05-22T02:15:57;98954.72;;;16.45;58.03
35655;BME280;21773;50.010;19.972;2023-05-22T02:19:02;98941.28;;;16.34;58.15
35655;BME280;21773;50.010;19.972;2023-05-22T02:22:09;98951.34;;;16.33;58.42
35655;BME280;21773;50.010;19.972;2023-05-22T02:25:15;98957.84;;;16.32;58.64
35655;BME280;21773;50.010;19.972;2023-05-22T02:28:19;98955.13;;;16.32;58.61
35655;BME280;21773;50.010;19.972;2023-05-22T02:31:23;98958.91;;;16.26;58.64
35655;BME280;21773;50.010;19.972;2023-05-22T02:34:28;98948.97;;;16.15;58.76
35655;BME280;21773;50.010;19.972;2023-05-22T02:37:33;98953.06;;;16.18;58.86
35655;BME280;21773;50.010;19.972;2023-05-22T02:40:37;98946.50;;;16.14;58.92
35655;BME280;21773;50.010;19.972;2023-05-22T02:43:41;98944.06;;;16.12;59.16
35655;BME280;21773;50.010;19.972;2023-05-22T02:46:44;98942.66;;;16.10;59.08
35655;BME280;21773;50.010;19.972;2023-05-22T02:49:49;98946.97;;;16.06;59.17
35655;BME280;21773;50.010;19.972;2023-05-22T02:52:53;98945.03;;;16.01;59.09
35655;BME280;21773;50.010;19.972;2023-05-22T02:55:56;98936.56;;;15.97;59.25
35655;BME280;21773;50.010;19.972;2023-05-22T02:59:00;98940.91;;;15.98;59.14
35655;BME280;21773;50.010;19.972;2023-05-22T03:02:04;98933.22;;;15.90;59.33
35655;BME280;21773;50.010;19.972;2023-05-22T03:05:09;98931.31;;;15.91;59.05
35655;BME280;21773;50.010;19.972;2023-05-22T03:08:12;98930.97;;;15.82;59.09
35655;BME280;21773;50.010;19.972;2023-05-22T03:11:17;98908.25;;;15.72;58.72
35655;BME280;21773;50.010;19.972;2023-05-22T03:14:21;98925.25;;;15.84;58.70
35655;BME280;21773;50.010;19.972;2023-05-22T03:17:24;98924.69;;;15.82;58.29
35655;BME280;21773;50.010;19.972;2023-05-22T03:20:29;98927.09;;;15.78;58.10
35655;BME280;21773;50.010;19.972;2023-05-22T03:23:33;98922.16;;;15.75;57.75
35655;BME280;21773;50.010;19.972;2023-05-22T03:26:37;98927.09;;;15.78;57.78
35655;BME280;21773;50.010;19.972;2023-05-22T03:29:43;98939.94;;;15.83;57.32
35655;BME280;21773;50.010;19.972;2023-05-22T03:32:47;98933.72;;;15.87;57.56
35655;BME280;21773;50.010;19.972;2023-05-22T03:35:52;98928.59;;;15.91;57.16
35655;BME280;21773;50.010;19.972;2023-05-22T03:38:55;98932.69;;;15.93;56.75
35655;BME280;21773;50.010;19.972;2023-05-22T03:41:58;98937.38;;;15.98;56.50
35655;BME280;21773;50.010;19.972;2023-05-22T03:45:04;98929.53;;;16.01;56.45
35655;BME280;21773;50.010;19.972;2023-05-22T03:48:07;98927.41;;;16.09;56.21
35655;BME280;21773;50.010;19.972;2023-05-22T03:51:13;98932.72;;;16.20;55.98
35655;BME280;21773;50.010;19.972;2023-05-22T03:54:20;98938.75;;;16.27;55.80
35655;BME280;21773;50.010;19.972;2023-05-22T03:57:24;98939.97;;;16.36;55.24
35655;BME280;21773;50.010;19.972;2023-05-22T04:00:27;98937.53;;;16.40;54.78
35655;BME280;21773;50.010;19.972;2023-05-22T04:03:30;98933.22;;;16.44;54.84
35655;BME280;21773;50.010;19.972;2023-05-22T04:06:35;98929.66;;;16.43;54.71
35655;BME280;21773;50.010;19.972;2023-05-22T04:09:46;98938.66;;;16.44;54.31
35655;BME280;21773;50.010;19.972;2023-05-22T04:12:50;98934.66;;;16.52;54.34
35655;BME280;21773;50.010;19.972;2023-05-22T04:15:53;98937.47;;;16.62;54.28
35655;BME280;21773;50.010;19.972;2023-05-22T04:18:57;98939.94;;;16.63;53.86
35655;BME280;21773;50.010;19.972;2023-05-22T04:22:03;98936.41;;;16.63;53.85
35655;BME280;21773;50.010;19.972;2023-05-22T04:25:08;98941.63;;;16.69;54.07
35655;BME280;21773;50.010;19.972;2023-05-22T04:28:11;98946.03;;;16.75;53.47
35655;BME280;21773;50.010;19.972;2023-05-22T04:31:14;98950.22;;;16.88;53.48
35655;BME280;21773;50.010;19.972;2023-05-22T04:34:18;98941.34;;;17.03;53.12
35655;BME280;21773;50.010;19.972;2023-05-22T04:37:22;98931.25;;;17.03;52.47
35655;BME280;21773;50.010;19.972;2023-05-22T04:40:30;98927.59;;;17.24;51.96
35655;BME280;21773;50.010;19.972;2023-05-22T04:43:34;98943.19;;;17.34;51.36
35655;BME280;21773;50.010;19.972;2023-05-22T04:46:40;98929.28;;;17.41;51.17
35655;BME280;21773;50.010;19.972;2023-05-22T04:49:44;98934.78;;;17.51;50.78
35655;BME280;21773;50.010;19.972;2023-05-22T04:52:49;98930.81;;;17.63;50.60
35655;BME280;21773;50.010;19.972;2023-05-22T04:55:54;98930.28;;;17.66;49.76
35655;BME280;21773;50.010;19.972;2023-05-22T04:58:58;98940.44;;;17.86;49.38
35655;BME280;21773;50.010;19.972;2023-05-22T05:02:02;98938.81;;;17.90;49.26
35655;BME280;21773;50.010;19.972;2023-05-22T05:05:06;98927.88;;;17.85;48.73
35655;BME280;21773;50.010;19.972;2023-05-22T05:08:10;98933.94;;;18.02;49.51
35655;BME280;21773;50.010;19.972;2023-05-22T05:11:14;98939.47;;;18.23;49.30
35655;BME280;21773;50.010;19.972;2023-05-22T05:14:17;98930.44;;;18.22;48.40
35655;BME280;21773;50.010;19.972;2023-05-22T05:17:21;98938.91;;;18.36;48.40
35655;BME280;21773;50.010;19.972;2023-05-22T05:20:24;98933.47;;;18.36;48.16
35655;BME280;21773;50.010;19.972;2023-05-22T05:23:30;98931.56;;;18.46;48.77
35655;BME280;21773;50.010;19.972;2023-05-22T05:26:33;98927.72;;;18.52;48.31
35655;BME280;21773;50.010;19.972;2023-05-22T05:29:36;98921.78;;;18.66;48.48
35655;BME280;21773;50.010;19.972;2023-05-22T05:32:47;98924.50;;;18.86;47.59
35655;BME280;21773;50.010;19.972;2023-05-22T05:36:04;98930.75;;;18.96;47.53
35655;BME280;21773;50.010;19.972;2023-05-22T05:39:10;98936.19;;;19.12;47.14
35655;BME280;21773;50.010;19.972;2023-05-22T05:42:14;98932.13;;;18.99;46.35
35655;BME280;21773;50.010;19.972;2023-05-22T05:45:20;98944.13;;;19.18;46.38
35655;BME280;21773;50.010;19.972;2023-05-22T05:48:23;98926.34;;;19.21;46.92
35655;BME280;21773;50.010;19.972;2023-05-22T05:51:27;98922.53;;;19.22;46.81
35655;BME280;21773;50.010;19.972;2023-05-22T05:54:33;98927.13;;;19.41;47.33
35655;BME280;21773;50.010;19.972;2023-05-22T05:57:44;98918.09;;;19.36;46.24
35655;BME280;21773;50.010;19.972;2023-05-22T06:00:54;98927.38;;;19.55;47.32
35655;BME280;21773;50.010;19.972;2023-05-22T06:03:58;98925.59;;;19.84;46.62
35655;BME280;21773;50.010;19.972;2023-05-22T06:07:05;98924.72;;;19.99;46.28
35655;BME280;21773;50.010;19.972;2023-05-22T06:10:19;98921.88;;;20.14;43.87
35655;BME280;21773;50.010;19.972;2023-05-22T06:13:30;98923.94;;;20.43;45.90
35655;BME280;21773;50.010;19.972;2023-05-22T06:16:34;98928.22;;;20.54;44.60
35655;BME280;21773;50.010;19.972;2023-05-22T06:19:38;98913.22;;;20.80;44.79
35655;BME280;21773;50.010;19.972;2023-05-22T06:22:42;98918.44;;;20.82;42.66
35655;BME280;21773;50.010;19.972;2023-05-22T06:25:47;98921.16;;;20.82;43.04
35655;BME280;21773;50.010;19.972;2023-05-22T06:28:50;98923.56;;;20.88;43.76
35655;BME280;21773;50.010;19.972;2023-05-22T06:31:56;98916.59;;;21.01;43.47
35655;BME280;21773;50.010;19.972;2023-05-22T06:34:59;98926.63;;;21.15;42.31
35655;BME280;21773;50.010;19.972;2023-05-22T06:38:04;98922.75;;;21.16;42.19
35655;BME280;21773;50.010;19.972;2023-05-22T06:41:09;98921.56;;;21.28;43.17
35655;BME280;21773;50.010;19.972;2023-05-22T06:44:13;98913.28;;;21.56;42.87
35655;BME280;21773;50.010;19.972;2023-05-22T06:47:16;98907.19;;;21.83;43.56
35655;BME280;21773;50.010;19.972;2023-05-22T06:50:20;98926.16;;;22.22;42.37
35655;BME280;21773;50.010;19.972;2023-05-22T06:53:24;98919.91;;;22.54;42.11
35655;BME280;21773;50.010;19.972;2023-05-22T06:56:30;98913.28;;;22.74;40.81
35655;BME280;21773;50.010;19.972;2023-05-22T06:59:39;98913.84;;;22.89;39.63
35655;BME280;21773;50.010;19.972;2023-05-22T07:03:09;98923.78;;;23.18;41.64
35655;BME280;21773;50.010;19.972;2023-05-22T07:06:20;98922.28;;;23.25;38.63
35655;BME280;21773;50.010;19.972;2023-05-22T07:09:24;98923.41;;;23.38;40.34
35655;BME280;21773;50.010;19.972;2023-05-22T07:12:29;98917.53;;;23.58;40.19
35655;BME280;21773;50.010;19.972;2023-05-22T07:15:32;98923.03;;;23.86;39.42
35655;BME280;21773;50.010;19.972;2023-05-22T07:18:37;98916.28;;;23.92;39.59
35655;BME280;21773;50.010;19.972;2023-05-22T07:21:41;98913.72;;;24.09;38.78
35655;BME280;21773;50.010;19.972;2023-05-22T07:24:46;98912.09;;;24.22;37.87
35655;BME280;21773;50.010;19.972;2023-05-22T07:27:53;98914.25;;;24.47;38.77
35655;BME280;21773;50.010;19.972;2023-05-22T07:30:57;98913.69;;;24.81;37.95
35655;BME280;21773;50.010;19.972;2023-05-22T07:34:01;98907.75;;;25.18;37.92
35655;BME280;21773;50.010;19.972;2023-05-22T07:37:06;98912.09;;;25.41;36.92
35655;BME280;21773;50.010;19.972;2023-05-22T07:40:11;98914.38;;;25.70;36.15
35655;BME280;21773;50.010;19.972;2023-05-22T07:43:16;98910.97;;;25.82;34.61
35655;BME280;21773;50.010;19.972;2023-05-22T07:46:19;98906.72;;;25.76;33.82
35655;BME280;21773;50.010;19.972;2023-05-22T07:49:42;98911.94;;;25.77;34.72
35655;BME280;21773;50.010;19.972;2023-05-22T07:52:46;98912.47;;;26.05;36.08
35655;BME280;21773;50.010;19.972;2023-05-22T07:55:50;98918.22;;;26.26;35.23
35655;BME280;21773;50.010;19.972;2023-05-22T07:58:55;98923.75;;;26.26;34.13
35655;BME280;21773;50.010;19.972;2023-05-22T08:02:00;98923.28;;;26.24;33.06
35655;BME280;21773;50.010;19.972;2023-05-22T08:05:04;98917.91;;;26.45;33.98
35655;BME280;21773;50.010;19.972;2023-05-22T08:08:08;98913.53;;;26.44;33.23
35655;BME280;21773;50.010;19.972;2023-05-22T08:11:13;98917.09;;;26.61;33.47
35655;BME280;21773;50.010;19.972;2023-05-22T08:14:19;98908.00;;;26.52;31.86
35655;BME280;21773;50.010;19.972;2023-05-22T08:17:23;98913.53;;;26.52;32.21
35655;BME280;21773;50.010;19.972;2023-05-22T08:20:27;98890.59;;;26.52;30.81
35655;BME280;21773;50.010;19.972;2023-05-22T08:23:30;98913.50;;;26.69;31.46
35655;BME280;21773;50.010;19.972;2023-05-22T08:26:33;98904.53;;;27.07;32.44
35655;BME280;21773;50.010;19.972;2023-05-22T08:29:38;98904.66;;;27.19;30.88
35655;BME280;21773;50.010;19.972;2023-05-22T08:32:41;98904.38;;;27.12;30.21
35655;BME280;21773;50.010;19.972;2023-05-22T08:35:45;98904.44;;;27.41;31.98
35655;BME280;21773;50.010;19.972;2023-05-22T08:38:48;98902.75;;;27.57;30.59
35655;BME280;21773;50.010;19.972;2023-05-22T08:41:51;98910.53;;;27.64;29.10
35655;BME280;21773;50.010;19.972;2023-05-22T08:44:56;98902.59;;;27.83;29.37
35655;BME280;21773;50.010;19.972;2023-05-22T08:48:03;98897.50;;;27.65;28.74
35655;BME280;21773;50.010;19.972;2023-05-22T08:51:10;98895.13;;;27.46;29.32
35655;BME280;21773;50.010;19.972;2023-05-22T08:54:17;98903.03;;;27.65;30.38
35655;BME280;21773;50.010;19.972;2023-05-22T08:57:23;98897.41;;;27.82;30.38
35655;BME280;21773;50.010;19.972;2023-05-22T09:00:29;98894.03;;;27.97;29.43
35655;BME280;21773;50.010;19.972;2023-05-22T09:03:34;98885.22;;;27.74;28.44
35655;BME280;21773;50.010;19.972;2023-05-22T09:06:38;98891.16;;;27.93;29.80
35655;BME280;21773;50.010;19.972;2023-05-22T09:09:41;98899.34;;;27.52;28.47
35655;BME280;21773;50.010;19.972;2023-05-22T09:13:02;98893.63;;;27.86;29.43
35655;BME280;21773;50.010;19.972;2023-05-22T09:16:09;98883.88;;;28.10;29.31
35655;BME280;21773;50.010;19.972;2023-05-22T09:19:13;98883.56;;;28.32;27.58
35655;BME280;21773;50.010;19.972;2023-05-22T09:22:16;98886.31;;;28.32;27.51
35655;BME280;21773;50.010;19.972;2023-05-22T09:25:22;98883.56;;;28.53;28.11
35655;BME280;21773;50.010;19.972;2023-05-22T09:28:31;98880.00;;;28.85;28.32
35655;BME280;21773;50.010;19.972;2023-05-22T09:31:43;98856.53;;;28.62;27.27
35655;BME280;21773;50.010;19.972;2023-05-22T09:34:50;98866.69;;;28.58;26.58
35655;BME280;21773;50.010;19.972;2023-05-22T09:37:54;98869.78;;;28.23;26.70
35655;BME280;21773;50.010;19.972;2023-05-22T09:40:58;98871.56;;;28.61;28.09
35655;BME280;21773;50.010;19.972;2023-05-22T09:44:06;98859.63;;;28.81;27.44
35655;BME280;21773;50.010;19.972;2023-05-22T09:47:15;98869.59;;;28.94;28.13
35655;BME280;21773;50.010;19.972;2023-05-22T09:50:18;98864.69;;;28.79;27.81
35655;BME280;21773;50.010;19.972;2023-05-22T09:53:25;98863.94;;;28.70;28.05
35655;BME280;21773;50.010;19.972;2023-05-22T09:56:30;98865.06;;;28.77;26.90
35655;BME280;21773;50.010;19.972;2023-05-22T09:59:42;98856.22;;;28.42;26.55
35655;BME280;21773;50.010;19.972;2023-05-22T10:03:06;98864.47;;;28.51;27.19
35655;BME280;21773;50.010;19.972;2023-05-22T10:06:13;98859.31;;;28.62;26.43
35655;BME280;21773;50.010;19.972;2023-05-22T10:09:23;98859.09;;;28.88;28.36
35655;BME280;21773;50.010;19.972;2023-05-22T10:12:32;98854.97;;;29.06;27.74
35655;BME280;21773;50.010;19.972;2023-05-22T10:15:40;98842.59;;;29.15;26.05
35655;BME280;21773;50.010;19.972;2023-05-22T10:18:46;98843.69;;;29.35;26.04
35655;BME280;21773;50.010;19.972;2023-05-22T10:21:52;98841.59;;;29.32;27.32
35655;BME280;21773;50.010;19.972;2023-05-22T10:24:59;98845.22;;;29.00;25.78
35655;BME280;21773;50.010;19.972;2023-05-22T10:28:03;98849.63;;;28.68;26.18
35655;BME280;21773;50.010;19.972;2023-05-22T10:31:13;98844.13;;;28.26;26.60
35655;BME280;21773;50.010;19.972;2023-05-22T10:34:50;98838.03;;;28.33;26.73
35655;BME280;21773;50.010;19.972;2023-05-22T10:38:10;98838.22;;;28.49;26.80
35655;BME280;21773;50.010;19.972;2023-05-22T10:41:17;98839.19;;;28.85;25.67
35655;BME280;21773;50.010;19.972;2023-05-22T10:44:21;98838.34;;;28.73;25.10
35655;BME280;21773;50.010;19.972;2023-05-22T10:47:25;98834.34;;;28.95;25.14
35655;BME280;21773;50.010;19.972;2023-05-22T10:50:30;98829.31;;;29.33;25.74
35655;BME280;21773;50.010;19.972;2023-05-22T10:53:34;98831.88;;;29.75;25.03
35655;BME280;21773;50.010;19.972;2023-05-22T10:56:38;98828.75;;;29.76;23.36
35655;BME280;21773;50.010;19.972;2023-05-22T10:59:43;98832.03;;;30.06;24.73
35655;BME280;21773;50.010;19.972;2023-05-22T11:02:49;98821.91;;;30.26;24.00
35655;BME280;21773;50.010;19.972;2023-05-22T11:05:58;98823.63;;;30.30;23.64
35655;BME280;21773;50.010;19.972;2023-05-22T11:09:19;98817.47;;;30.65;23.51
35655;BME280;21773;50.010;19.972;2023-05-22T11:12:24;98813.84;;;30.92;23.23
35655;BME280;21773;50.010;19.972;2023-05-22T11:15:30;98807.75;;;30.86;23.18
35655;BME280;21773;50.010;19.972;2023-05-22T11:18:34;98799.28;;;30.67;21.30
35655;BME280;21773;50.010;19.972;2023-05-22T11:21:43;98804.88;;;30.55;23.57
35655;BME280;21773;50.010;19.972;2023-05-22T11:24:47;98804.94;;;30.71;23.72
35655;BME280;21773;50.010;19.972;2023-05-22T11:27:52;98804.22;;;30.74;22.55
35655;BME280;21773;50.010;19.972;2023-05-22T11:30:56;98796.84;;;30.66;21.28
35655;BME280;21773;50.010;19.972;2023-05-22T11:34:01;98790.56;;;30.41;22.93
35655;BME280;21773;50.010;19.972;2023-05-22T11:37:07;98797.44;;;30.03;21.33
35655;BME280;21773;50.010;19.972;2023-05-22T11:40:14;98786.44;;;29.83;21.75
35655;BME280;21773;50.010;19.972;2023-05-22T11:43:27;98792.91;;;29.87;23.40
35655;BME280;21773;50.010;19.972;2023-05-22T11:46:30;98791.88;;;30.03;22.87
35655;BME280;21773;50.010;19.972;2023-05-22T11:49:34;98795.59;;;29.83;20.97
35655;BME280;21773;50.010;19.972;2023-05-22T11:52:41;98796.47;;;30.11;22.53
35655;BME280;21773;50.010;19.972;2023-05-22T11:55:47;98792.34;;;30.33;22.90
35655;BME280;21773;50.010;19.972;2023-05-22T11:58:50;98786.84;;;30.49;22.64
35655;BME280;21773;50.010;19.972;2023-05-22T12:01:54;98792.91;;;30.67;22.77
35655;BME280;21773;50.010;19.972;2023-05-22T12:04:57;98792.28;;;30.89;22.81
35655;BME280;21773;50.010;19.972;2023-05-22T12:08:02;98790.34;;;31.05;21.69
35655;BME280;21773;50.010;19.972;2023-05-22T12:11:05;98791.97;;;31.22;22.19
35655;BME280;21773;50.010;19.972;2023-05-22T12:14:10;98780.44;;;31.23;22.02
35655;BME280;21773;50.010;19.972;2023-05-22T12:17:15;98780.56;;;31.27;21.37
35655;BME280;21773;50.010;19.972;2023-05-22T12:20:18;98784.88;;;31.24;20.84
35655;BME280;21773;50.010;19.972;2023-05-22T12:23:24;98782.34;;;31.35;22.59
35655;BME280;21773;50.010;19.972;2023-05-22T12:26:28;98775.31;;;31.41;22.58
35655;BME280;21773;50.010;19.972;2023-05-22T12:29:31;98773.03;;;31.62;22.83
35655;BME280;21773;50.010;19.972;2023-05-22T12:32:35;98768.31;;;31.47;21.73
35655;BME280;21773;50.010;19.972;2023-05-22T12:35:39;98768.06;;;31.05;21.38
35655;BME280;21773;50.010;19.972;2023-05-22T12:38:43;98766.59;;;30.64;22.84
35655;BME280;21773;50.010;19.972;2023-05-22T12:41:47;98753.47;;;30.65;23.30
35655;BME280;21773;50.010;19.972;2023-05-22T12:44:52;98752.94;;;30.75;23.17
35655;BME280;21773;50.010;19.972;2023-05-22T12:47:55;98748.13;;;30.87;23.86
35655;BME280;21773;50.010;19.972;2023-05-22T12:50:59;98755.84;;;31.10;22.92
35655;BME280;21773;50.010;19.972;2023-05-22T12:54:04;98746.41;;;30.83;21.83
35655;BME280;21773;50.010;19.972;2023-05-22T12:57:08;98741.38;;;30.45;22.97
35655;BME280;21773;50.010;19.972;2023-05-22T13:00:12;98757.97;;;30.69;23.28
35655;BME280;21773;50.010;19.972;2023-05-22T13:03:16;98752.19;;;30.46;22.14
35655;BME280;21773;50.010;19.972;2023-05-22T13:06:19;98748.81;;;30.53;22.06
35655;BME280;21773;50.010;19.972;2023-05-22T13:09:24;98745.31;;;30.56;22.81
35655;BME280;21773;50.010;19.972;2023-05-22T13:12:27;98744.59;;;30.31;23.19
35655;BME280;21773;50.010;19.972;2023-05-22T13:15:32;98739.53;;;30.21;22.89
35655;BME280;21773;50.010;19.972;2023-05-22T13:18:37;98743.09;;;30.34;24.00
35655;BME280;21773;50.010;19.972;2023-05-22T13:21:41;98732.78;;;30.34;23.23
35655;BME280;21773;50.010;19.972;2023-05-22T13:24:45;98734.53;;;30.27;23.57
35655;BME280;21773;50.010;19.972;2023-05-22T13:27:49;98733.22;;;30.36;24.23
35655;BME280;21773;50.010;19.972;2023-05-22T13:30:52;98729.47;;;30.44;23.99
35655;BME280;21773;50.010;19.972;2023-05-22T13:33:55;98724.31;;;30.59;23.46
35655;BME280;21773;50.010;19.972;2023-05-22T13:37:01;98730.41;;;30.48;23.06
35655;BME280;21773;50.010;19.972;2023-05-22T13:40:07;98718.56;;;30.51;24.35
35655;BME280;21773;50.010;19.972;2023-05-22T13:43:11;98720.72;;;29.75;23.89
35655;BME280;21773;50.010;19.972;2023-05-22T13:46:14;98710.03;;;29.77;25.16
35655;BME280;21773;50.010;19.972;2023-05-22T13:49:19;98711.41;;;29.83;24.03
35655;BME280;21773;50.010;19.972;2023-05-22T13:52:22;98711.66;;;29.90;24.42
35655;BME280;21773;50.010;19.972;2023-05-22T13:55:27;98704.97;;;29.66;24.62
35655;BME280;21773;50.010;19.972;2023-05-22T13:58:30;98712.88;;;29.64;24.16
35655;BME280;21773;50.010;19.972;2023-05-22T14:01:34;98698.09;;;29.48;24.55
35655;BME280;21773;50.010;19.972;2023-05-22T14:04:37;98696.03;;;29.33;24.39
35655;BME280;21773;50.010;19.972;2023-05-22T14:07:41;98692.53;;;29.24;24.54
35655;BME280;21773;50.010;19.972;2023-05-22T14:10:45;98690.28;;;29.02;24.67
35655;BME280;21773;50.010;19.972;2023-05-22T14:13:49;98693.09;;;28.69;25.19
35655;BME280;21773;50.010;19.972;2023-05-22T14:16:53;98683.22;;;28.23;25.18
35655;BME280;21773;50.010;19.972;2023-05-22T14:19:56;98680.22;;;28.40;26.24
35655;BME280;21773;50.010;19.972;2023-05-22T14:23:00;98685.88;;;28.31;26.01
35655;BME280;21773;50.010;19.972;2023-05-22T14:26:05;98683.00;;;27.95;25.30
35655;BME280;21773;50.010;19.972;2023-05-22T14:29:09;98670.69;;;27.84;25.76
35655;BME280;21773;50.010;19.972;2023-05-22T14:32:12;98686.78;;;27.90;26.51
35655;BME280;21773;50.010;19.972;2023-05-22T14:35:15;98673.63;;;27.67;26.12
35655;BME280;21773;50.010;19.972;2023-05-22T14:38:19;98681.88;;;27.54;26.86
35655;BME280;21773;50.010;19.972;2023-05-22T14:41:24;98673.69;;;27.58;26.99
35655;BME280;21773;50.010;19.972;2023-05-22T14:44:28;98677.41;;;27.62;27.21
35655;BME280;21773;50.010;19.972;2023-05-22T14:47:31;98666.06;;;27.55;26.51
35655;BME280;21773;50.010;19.972;2023-05-22T14:50:34;98673.84;;;27.32;26.58
35655;BME280;21773;50.010;19.972;2023-05-22T14:53:38;98672.84;;;27.37;26.76
35655;BME280;21773;50.010;19.972;2023-05-22T14:56:43;98668.59;;;27.39;27.16
35655;BME280;21773;50.010;19.972;2023-05-22T14:59:46;98660.59;;;27.46;26.82
35655;BME280;21773;50.010;19.972;2023-05-22T15:02:49;98666.72;;;27.52;26.77
35655;BME280;21773;50.010;19.972;2023-05-22T15:05:53;98671.81;;;27.71;26.42
35655;BME280;21773;50.010;19.972;2023-05-22T15:08:56;98666.50;;;27.78;26.14
35655;BME280;21773;50.010;19.972;2023-05-22T15:12:01;98665.81;;;27.81;26.09
35655;BME280;21773;50.010;19.972;2023-05-22T15:15:05;98664.16;;;27.68;26.24
35655;BME280;21773;50.010;19.972;2023-05-22T15:18:08;98657.88;;;27.79;26.38
35655;BME280;21773;50.010;19.972;2023-05-22T15:21:13;98659.94;;;27.82;25.65
35655;BME280;21773;50.010;19.972;2023-05-22T15:24:16;98645.97;;;27.79;25.66
35655;BME280;21773;50.010;19.972;2023-05-22T15:27:21;98657.78;;;27.88;25.73
35655;BME280;21773;50.010;19.972;2023-05-22T15:30:24;98651.44;;;27.87;25.67
35655;BME280;21773;50.010;19.972;2023-05-22T15:33:28;98643.81;;;27.84;25.60
35655;BME280;21773;50.010;19.972;2023-05-22T15:36:34;98647.41;;;27.64;25.91
35655;BME280;21773;50.010;19.972;2023-05-22T15:39:37;98651.47;;;27.67;26.09
35655;BME280;21773;50.010;19.972;2023-05-22T15:42:42;98645.25;;;27.70;26.84
35655;BME280;21773;50.010;19.972;2023-05-22T15:45:46;98647.28;;;27.40;25.99
35655;BME280;21773;50.010;19.972;2023-05-22T15:48:50;98647.28;;;27.40;26.84
35655;BME280;21773;50.010;19.972;2023-05-22T15:51:53;98640.84;;;27.06;27.15
35655;BME280;21773;50.010;19.972;2023-05-22T15:54:56;98645.50;;;27.14;27.92
35655;BME280;21773;50.010;19.972;2023-05-22T15:58:01;98637.00;;;27.20;27.99
35655;BME280;21773;50.010;19.972;2023-05-22T16:01:07;98637.63;;;27.25;27.14
35655;BME280;21773;50.010;19.972;2023-05-22T16:04:10;98634.91;;;27.17;27.60
35655;BME280;21773;50.010;19.972;2023-05-22T16:07:13;98636.91;;;26.78;27.33
35655;BME280;21773;50.010;19.972;2023-05-22T16:10:19;98636.91;;;26.87;27.84